首页
METAR-TAF:

METAR-TAF

机场 :

Driggs, 爱达荷州, 美国

纬度: 43-44-33N, 经度: 111-05-51W, 海拔: 1899米

当前天气观测

该预报发布于49分钟前的01:56 UTC
风速7节,风向
温度 19°C
湿度 43%
气压 1018 hPa
能見度: 16.1公里
天空无云

METAR: KDIJ 010156Z AUTO 01007KT 10SM CLR 19/06 A3007 RMK AO2 SLP123 T01940061

时间: 20:45 (02:45 UTC)

预报

该预报发布于3小时和25分钟前的23:20 UTC
预报有效从01日的 00点(UTC)到 01日的 24点(UTC)
风速14节,风向西
能見度: 10公里
少量云层高于7000英尺
少量云层高于25000英尺
从 01日的 0200点(UTC)
风速7节,风向南转南东
能見度: 10公里
散云层高于25000英尺
从 01日的 2000点(UTC)
风速12节,风向西转西南
能見度: 10公里
少量云层高于8000英尺
少量云层高于25000英尺

TAF: KDIJ 312320Z 0100/0124 28014KT P6SM FEW070 FEW250 FM010200 16007KT P6SM SCT250 FM012000 24012KT P6SM FEW080 FEW250 AMD LTD TO CLD VIS AND WIND

超过4000个机场的气象观测和天气预报(METAR&TAF报告)。

可查询的气象台以黄色和红色小点在地图上表示。

将鼠标移到小点上方,可查看气象台名称。

然后点击查看天气观测和预报。

如需切换地图:点击带黑十字的绿色按钮放大地图;点击带横线的绿色按钮缩小地图;或者点击绿色箭头查看邻近地区的地图。


METAR-TAF: